SWR187E LSZH-LHBP
Flight info
| Callsign | SWR187E |
|---|---|
| Flight time | N/A |
| Altitude | 29000 |
| Route | DEGES Z2 TUNUM/N0437F350 Z209 BIRGI DCT SETAL DCT GOTAR DCT SIRDU DCT OGVUN DCT VAJDI |
| Aircraft | A320/M-SDE3FGHIRWY/LB1 |
Departure
| Time | N/A |
|---|---|
| Airport | Zürich Airport (LSZH) |
Arrival
| Time | 2026-05-06 16:35 |
|---|---|
| Airport | Budapest Liszt Ferenc International Airport (LHBP) |
| Time | Latitude | Longitude | Altitude | Speed | Heading |
|---|---|---|---|---|---|
| 2026-05-06 15:37 | 47.43632 | 10.21044 | 28885 ft | 479 kts | 108° |
| 2026-05-06 15:37 | 47.42990 | 10.25895 | 28888 ft | 482 kts | 108° |
| 2026-05-06 15:38 | 47.41692 | 10.35587 | 28885 ft | 480 kts | 108° |
| 2026-05-06 15:38 | 47.40373 | 10.45252 | 28827 ft | 480 kts | 108° |
| 2026-05-06 15:39 | 47.39045 | 10.54939 | 28849 ft | 483 kts | 108° |
| 2026-05-06 15:39 | 47.37709 | 10.64669 | 28865 ft | 484 kts | 108° |
| 2026-05-06 15:40 | 47.36363 | 10.74376 | 28814 ft | 482 kts | 108° |
| 2026-05-06 15:40 | 47.34997 | 10.84057 | 28811 ft | 482 kts | 108° |
| 2026-05-06 15:41 | 47.33631 | 10.93713 | 28769 ft | 482 kts | 108° |
| 2026-05-06 15:41 | 47.32262 | 11.03383 | 28761 ft | 482 kts | 108° |
| 2026-05-06 15:42 | 47.30883 | 11.13076 | 28769 ft | 482 kts | 108° |
| 2026-05-06 15:42 | 47.29508 | 11.22686 | 28768 ft | 483 kts | 108° |
| 2026-05-06 15:43 | 47.28108 | 11.32353 | 28720 ft | 482 kts | 109° |
| 2026-05-06 15:43 | 47.26683 | 11.42072 | 28780 ft | 487 kts | 109° |
| 2026-05-06 15:44 | 47.26158 | 11.52121 | 28782 ft | 503 kts | 88° |
| 2026-05-06 15:44 | 47.26871 | 11.57198 | 28778 ft | 511 kts | 76° |
| 2026-05-06 15:44 | 47.27996 | 11.62172 | 28774 ft | 512 kts | 75° |
| 2026-05-06 15:45 | 47.30262 | 11.72163 | 28770 ft | 516 kts | 75° |
| 2026-05-06 15:45 | 47.32513 | 11.82193 | 28765 ft | 516 kts | 75° |
| 2026-05-06 15:46 | 47.34387 | 11.92333 | 28753 ft | 508 kts | 87° |
| 2026-05-06 15:46 | 47.34387 | 12.02579 | 28733 ft | 498 kts | 99° |
| 2026-05-06 15:47 | 47.33969 | 12.12769 | 28730 ft | 498 kts | 99° |
| 2026-05-06 15:47 | 47.33540 | 12.22960 | 28737 ft | 498 kts | 99° |
| 2026-05-06 15:48 | 47.33106 | 12.33136 | 28739 ft | 497 kts | 99° |
| 2026-05-06 15:48 | 47.32661 | 12.43302 | 28729 ft | 497 kts | 99° |
| 2026-05-06 15:49 | 47.32207 | 12.53414 | 28695 ft | 497 kts | 99° |
| 2026-05-06 15:49 | 47.31748 | 12.63593 | 28721 ft | 499 kts | 99° |
| 2026-05-06 15:50 | 47.31281 | 12.73803 | 28732 ft | 499 kts | 99° |
| 2026-05-06 15:50 | 47.30799 | 12.84013 | 28733 ft | 499 kts | 100° |
| 2026-05-06 15:51 | 47.30306 | 12.94203 | 28740 ft | 499 kts | 100° |
| 2026-05-06 15:51 | 47.29806 | 13.04403 | 28762 ft | 500 kts | 99° |
| 2026-05-06 15:52 | 47.29299 | 13.14609 | 28772 ft | 499 kts | 99° |
| 2026-05-06 15:52 | 47.28789 | 13.24792 | 28768 ft | 497 kts | 100° |
| 2026-05-06 15:53 | 47.28272 | 13.34949 | 28765 ft | 497 kts | 100° |
| 2026-05-06 15:53 | 47.27736 | 13.45061 | 28804 ft | 492 kts | 99° |
| 2026-05-06 15:54 | 47.27199 | 13.55102 | 28818 ft | 491 kts | 99° |
| 2026-05-06 15:54 | 47.26669 | 13.65067 | 28823 ft | 491 kts | 99° |
| 2026-05-06 15:55 | 47.26114 | 13.75092 | 28830 ft | 491 kts | 100° |
| 2026-05-06 15:55 | 47.25548 | 13.85079 | 28814 ft | 490 kts | 99° |
| 2026-05-06 15:56 | 47.24975 | 13.95073 | 28821 ft | 489 kts | 99° |
| 2026-05-06 15:56 | 47.24399 | 14.05054 | 28839 ft | 489 kts | 99° |
| 2026-05-06 15:57 | 47.23822 | 14.15017 | 28847 ft | 489 kts | 99° |
| 2026-05-06 15:57 | 47.23225 | 14.24981 | 28831 ft | 489 kts | 100° |
| 2026-05-06 15:58 | 47.22358 | 14.34874 | 28838 ft | 487 kts | 104° |
| 2026-05-06 15:58 | 47.21179 | 14.44679 | 28844 ft | 487 kts | 105° |
| 2026-05-06 15:59 | 47.19968 | 14.54481 | 28845 ft | 487 kts | 104° |
| 2026-05-06 15:59 | 47.18847 | 14.64260 | 28840 ft | 489 kts | 103° |
| 2026-05-06 16:00 | 47.17747 | 14.74160 | 28843 ft | 490 kts | 103° |
| 2026-05-06 16:00 | 47.16640 | 14.84027 | 28855 ft | 490 kts | 104° |
| 2026-05-06 16:01 | 47.15496 | 14.93905 | 28853 ft | 490 kts | 104° |
| 2026-05-06 16:01 | 47.14334 | 15.03769 | 28837 ft | 490 kts | 104° |
| 2026-05-06 16:02 | 47.13172 | 15.13637 | 28844 ft | 489 kts | 104° |
| 2026-05-06 16:02 | 47.12005 | 15.23490 | 28841 ft | 490 kts | 104° |
| 2026-05-06 16:03 | 47.10839 | 15.33281 | 28856 ft | 490 kts | 104° |
| 2026-05-06 16:03 | 47.09664 | 15.43129 | 28836 ft | 489 kts | 103° |
| 2026-05-06 16:04 | 47.08476 | 15.52956 | 28859 ft | 488 kts | 104° |
| 2026-05-06 16:04 | 47.07276 | 15.62755 | 28863 ft | 488 kts | 104° |
| 2026-05-06 16:05 | 47.06068 | 15.72548 | 28868 ft | 488 kts | 104° |
| 2026-05-06 16:05 | 47.04857 | 15.82331 | 28847 ft | 488 kts | 104° |
| 2026-05-06 16:06 | 47.03642 | 15.92106 | 28849 ft | 488 kts | 104° |
| 2026-05-06 16:07 | 47.01331 | 16.10415 | 28857 ft | 488 kts | 104° |
| 2026-05-06 16:07 | 47.00379 | 16.20264 | 28859 ft | 493 kts | 92° |
| 2026-05-06 16:08 | 47.00685 | 16.25282 | 28855 ft | 497 kts | 81° |
| 2026-05-06 16:08 | 47.01611 | 16.30161 | 28865 ft | 499 kts | 72° |
| 2026-05-06 16:08 | 47.03887 | 16.39757 | 28863 ft | 499 kts | 72° |
| 2026-05-06 16:09 | 47.06165 | 16.49372 | 28860 ft | 499 kts | 72° |
| 2026-05-06 16:09 | 47.08420 | 16.59004 | 28861 ft | 499 kts | 72° |
| 2026-05-06 16:10 | 47.10663 | 16.68644 | 28845 ft | 499 kts | 72° |
| 2026-05-06 16:10 | 47.12899 | 16.78296 | 28864 ft | 499 kts | 72° |
| 2026-05-06 16:11 | 47.15131 | 16.87946 | 28869 ft | 499 kts | 72° |
| 2026-05-06 16:11 | 47.17347 | 16.97532 | 28890 ft | 499 kts | 72° |
| 2026-05-06 16:12 | 47.19574 | 17.07199 | 28879 ft | 498 kts | 72° |
| 2026-05-06 16:12 | 47.21782 | 17.16869 | 28876 ft | 498 kts | 72° |
| 2026-05-06 16:13 | 47.23974 | 17.26533 | 28877 ft | 497 kts | 73° |
| 2026-05-06 16:13 | 47.26161 | 17.36166 | 28885 ft | 496 kts | 72° |
| 2026-05-06 16:14 | 47.28523 | 17.45718 | 28886 ft | 496 kts | 70° |
| 2026-05-06 16:14 | 47.30985 | 17.55230 | 28891 ft | 496 kts | 70° |
| 2026-05-06 16:15 | 47.33378 | 17.64684 | 28874 ft | 496 kts | 71° |
| 2026-05-06 16:15 | 47.35755 | 17.74314 | 28861 ft | 496 kts | 71° |
| 2026-05-06 16:16 | 47.37939 | 17.83899 | 28868 ft | 495 kts | 79° |
| 2026-05-06 16:16 | 47.38425 | 17.88918 | 28346 ft | 494 kts | 89° |
| 2026-05-06 16:16 | 47.38404 | 17.93994 | 27216 ft | 481 kts | 94° |
| 2026-05-06 16:17 | 47.38294 | 17.98853 | 26173 ft | 467 kts | 94° |
| 2026-05-06 16:17 | 47.38172 | 18.03601 | 25318 ft | 459 kts | 94° |
| 2026-05-06 16:17 | 47.38047 | 18.08292 | 24887 ft | 458 kts | 94° |
| 2026-05-06 16:17 | 47.37925 | 18.12973 | 24351 ft | 454 kts | 94° |
| 2026-05-06 16:18 | 47.37811 | 18.17544 | 23834 ft | 450 kts | 94° |
| 2026-05-06 16:18 | 47.37702 | 18.22145 | 23271 ft | 446 kts | 94° |
| 2026-05-06 16:18 | 47.37383 | 18.26654 | 22717 ft | 439 kts | 104° |
| 2026-05-06 16:18 | 47.36478 | 18.30896 | 22181 ft | 431 kts | 116° |
| 2026-05-06 16:19 | 47.35055 | 18.34747 | 21650 ft | 425 kts | 124° |
| 2026-05-06 16:19 | 47.33667 | 18.38590 | 21112 ft | 424 kts | 114° |
| 2026-05-06 16:19 | 47.32970 | 18.42760 | 20334 ft | 416 kts | 97° |
| 2026-05-06 16:19 | 47.33103 | 18.46962 | 19597 ft | 407 kts | 79° |
| 2026-05-06 16:20 | 47.33993 | 18.50869 | 18837 ft | 399 kts | 63° |
| 2026-05-06 16:20 | 47.35520 | 18.54214 | 18079 ft | 390 kts | 49° |
| 2026-05-06 16:20 | 47.37281 | 18.57198 | 17225 ft | 383 kts | 48° |
| 2026-05-06 16:20 | 47.39014 | 18.60141 | 16390 ft | 376 kts | 49° |
| 2026-05-06 16:21 | 47.40716 | 18.63048 | 15585 ft | 371 kts | 49° |
| 2026-05-06 16:21 | 47.42386 | 18.65908 | 14800 ft | 366 kts | 49° |
| 2026-05-06 16:21 | 47.44034 | 18.68738 | 14010 ft | 361 kts | 49° |
| 2026-05-06 16:21 | 47.45665 | 18.71540 | 13180 ft | 358 kts | 49° |
| 2026-05-06 16:22 | 47.47282 | 18.74315 | 12249 ft | 355 kts | 49° |
| 2026-05-06 16:22 | 47.48889 | 18.77073 | 11254 ft | 355 kts | 49° |
| 2026-05-06 16:22 | 47.50498 | 18.79836 | 10311 ft | 353 kts | 50° |
| 2026-05-06 16:22 | 47.52098 | 18.82594 | 9344 ft | 352 kts | 50° |
| 2026-05-06 16:23 | 47.53684 | 18.85333 | 8338 ft | 350 kts | 50° |
| 2026-05-06 16:23 | 47.55242 | 18.88026 | 7372 ft | 348 kts | 50° |
| 2026-05-06 16:23 | 47.57003 | 18.90437 | 6419 ft | 346 kts | 32° |
| 2026-05-06 16:23 | 47.59212 | 18.91726 | 5485 ft | 339 kts | 6° |
| 2026-05-06 16:24 | 47.61429 | 18.91534 | 5333 ft | 301 kts | 339° |
| 2026-05-06 16:24 | 47.63123 | 18.90165 | 5332 ft | 261 kts | 310° |
| 2026-05-06 16:24 | 47.64111 | 18.88050 | 5330 ft | 245 kts | 285° |
| 2026-05-06 16:24 | 47.64600 | 18.85653 | 5332 ft | 242 kts | 277° |
| 2026-05-06 16:25 | 47.64733 | 18.83214 | 5331 ft | 236 kts | 259° |
| 2026-05-06 16:25 | 47.64621 | 18.80778 | 5331 ft | 238 kts | 264° |
| 2026-05-06 16:25 | 47.64605 | 18.78320 | 5329 ft | 236 kts | 258° |
| 2026-05-06 16:25 | 47.64120 | 18.76126 | 5332 ft | 210 kts | 234° |
| 2026-05-06 16:26 | 47.63182 | 18.74616 | 5328 ft | 192 kts | 214° |
| 2026-05-06 16:26 | 47.62000 | 18.73795 | 5353 ft | 187 kts | 197° |
| 2026-05-06 16:26 | 47.60698 | 18.73658 | 4938 ft | 191 kts | 176° |
| 2026-05-06 16:26 | 47.59458 | 18.74273 | 4503 ft | 193 kts | 155° |
| 2026-05-06 16:27 | 47.58435 | 18.75574 | 4161 ft | 197 kts | 133° |
| 2026-05-06 16:27 | 47.57804 | 18.77413 | 4037 ft | 207 kts | 111° |
| 2026-05-06 16:27 | 47.57713 | 18.79576 | 3914 ft | 217 kts | 85° |
| 2026-05-06 16:27 | 47.58056 | 18.81775 | 3900 ft | 221 kts | 81° |
| 2026-05-06 16:28 | 47.58405 | 18.83986 | 3893 ft | 221 kts | 81° |
| 2026-05-06 16:28 | 47.58749 | 18.86207 | 3898 ft | 220 kts | 81° |
| 2026-05-06 16:28 | 47.59088 | 18.88415 | 3900 ft | 217 kts | 81° |
| 2026-05-06 16:28 | 47.59416 | 18.90549 | 3803 ft | 215 kts | 80° |
| 2026-05-06 16:29 | 47.59745 | 18.92691 | 3800 ft | 212 kts | 81° |
| 2026-05-06 16:29 | 47.60061 | 18.94821 | 3807 ft | 207 kts | 85° |
| 2026-05-06 16:29 | 47.59984 | 18.96828 | 3792 ft | 182 kts | 112° |
| 2026-05-06 16:29 | 47.59447 | 18.98421 | 3798 ft | 170 kts | 136° |
| 2026-05-06 16:30 | 47.58667 | 18.99698 | 3803 ft | 166 kts | 141° |
| 2026-05-06 16:30 | 47.58137 | 19.00552 | 3808 ft | 167 kts | 140° |
| 2026-05-06 16:30 | 47.57098 | 19.02228 | 3809 ft | 167 kts | 141° |
| 2026-05-06 16:30 | 47.56314 | 19.03494 | 3756 ft | 168 kts | 140° |
| 2026-05-06 16:31 | 47.55532 | 19.04757 | 3536 ft | 162 kts | 140° |
| 2026-05-06 16:31 | 47.54793 | 19.05959 | 3308 ft | 154 kts | 140° |
| 2026-05-06 16:31 | 47.54091 | 19.07102 | 3107 ft | 146 kts | 142° |
| 2026-05-06 16:31 | 47.53420 | 19.08194 | 2918 ft | 141 kts | 141° |
| 2026-05-06 16:32 | 47.52765 | 19.09258 | 2734 ft | 138 kts | 141° |
| 2026-05-06 16:32 | 47.52121 | 19.10305 | 2554 ft | 137 kts | 142° |
| 2026-05-06 16:32 | 47.51480 | 19.11346 | 2377 ft | 137 kts | 140° |
| 2026-05-06 16:32 | 47.50835 | 19.12393 | 2190 ft | 137 kts | 139° |
| 2026-05-06 16:33 | 47.50193 | 19.13437 | 2006 ft | 137 kts | 140° |
| 2026-05-06 16:33 | 47.49551 | 19.14478 | 1825 ft | 138 kts | 140° |
| 2026-05-06 16:33 | 47.48906 | 19.15527 | 1652 ft | 137 kts | 139° |
| 2026-05-06 16:34 | 47.47619 | 19.17615 | 1292 ft | 137 kts | 138° |
| 2026-05-06 16:34 | 47.46984 | 19.18647 | 1110 ft | 135 kts | 139° |
| 2026-05-06 16:34 | 47.46350 | 19.19674 | 923 ft | 138 kts | 140° |
| 2026-05-06 16:34 | 47.45695 | 19.20734 | 744 ft | 141 kts | 141° |
| 2026-05-06 16:35 | 47.45039 | 19.21798 | 565 ft | 139 kts | 139° |
| 2026-05-06 16:35 | 47.44416 | 19.22792 | 491 ft | 116 kts | 133° |
| 2026-05-06 16:35 | 47.44049 | 19.23391 | 485 ft | 58 kts | 133° |
| 2026-05-06 16:35 | 47.43812 | 19.23773 | 486 ft | 45 kts | 133° |
| 2026-05-06 16:36 | 47.43701 | 19.24067 | 488 ft | 5 kts | 101° |
| 2026-05-06 16:36 | 47.43694 | 19.24116 | 485 ft | 14 kts | 103° |
| 2026-05-06 16:36 | 47.43671 | 19.24267 | 483 ft | 15 kts | 102° |
| 2026-05-06 16:36 | 47.43662 | 19.24317 | 486 ft | 0 kts | 107° |
| 2026-05-06 16:37 | 47.43661 | 19.24317 | 486 ft | 0 kts | 107° |
| 2026-05-06 16:37 | 47.43650 | 19.24374 | 482 ft | 13 kts | 107° |
| 2026-05-06 16:37 | 47.43584 | 19.24552 | 481 ft | 25 kts | 127° |
| 2026-05-06 16:37 | 47.43464 | 19.24754 | 476 ft | 27 kts | 131° |
| 2026-05-06 16:38 | 47.43346 | 19.24949 | 480 ft | 20 kts | 135° |
| 2026-05-06 16:38 | 47.43307 | 19.25049 | 485 ft | 9 kts | 87° |
| 2026-05-06 16:38 | 47.43325 | 19.25138 | 480 ft | 9 kts | 56° |
| 2026-05-06 16:38 | 47.43367 | 19.25202 | 481 ft | 9 kts | 44° |
| 2026-05-06 16:39 | 47.43411 | 19.25264 | 480 ft | 9 kts | 50° |
| 2026-05-06 16:39 | 47.43434 | 19.25295 | 481 ft | 0 kts | 43° |
| 2026-05-06 16:39 | 47.43438 | 19.25301 | 480 ft | 4 kts | 43° |
| 2026-05-06 16:39 | 47.43500 | 19.25379 | 481 ft | 16 kts | 41° |
| 2026-05-06 16:40 | 47.43592 | 19.25507 | 486 ft | 21 kts | 43° |
| 2026-05-06 16:40 | 47.43709 | 19.25659 | 486 ft | 22 kts | 41° |
| 2026-05-06 16:40 | 47.43780 | 19.25758 | 484 ft | 10 kts | 46° |
| 2026-05-06 16:40 | 47.43806 | 19.25846 | 486 ft | 9 kts | 101° |
| 2026-05-06 16:41 | 47.43769 | 19.25915 | 489 ft | 8 kts | 134° |
| 2026-05-06 16:41 | 47.43728 | 19.25981 | 488 ft | 9 kts | 131° |
| 2026-05-06 16:41 | 47.43680 | 19.26060 | 485 ft | 11 kts | 133° |
| 2026-05-06 16:41 | 47.43632 | 19.26137 | 481 ft | 9 kts | 131° |
| 2026-05-06 16:42 | 47.43606 | 19.26176 | 483 ft | 2 kts | 150° |
| 2026-05-06 16:42 | 47.43600 | 19.26185 | 486 ft | 1 kts | 130° |
| 2026-05-06 16:42 | 47.43595 | 19.26193 | 486 ft | 3 kts | 130° |
| 2026-05-06 16:42 | 47.43574 | 19.26196 | 486 ft | 6 kts | 223° |
| 2026-05-06 16:43 | 47.43505 | 19.26160 | 485 ft | 11 kts | 172° |
| 2026-05-06 16:43 | 47.43449 | 19.26166 | 486 ft | 6 kts | 178° |
| 2026-05-06 16:43 | 47.43447 | 19.26166 | 487 ft | 0 kts | 178° |
| 2026-05-06 16:43 | 47.43445 | 19.26166 | 487 ft | 0 kts | 178° |